sensor_id;sensor_type;location;lat;lon;timestamp;P1;durP1;ratioP1;P2;durP2;ratioP2
15331;SDS011;7766;51.534;6.722;2023-05-24T00:00:19;6.20;;;2.13;;
15331;SDS011;7766;51.534;6.722;2023-05-24T00:01:21;8.40;;;2.30;;
15331;SDS011;7766;51.534;6.722;2023-05-24T00:02:25;7.70;;;2.20;;
15331;SDS011;7766;51.534;6.722;2023-05-24T00:03:26;6.70;;;1.87;;
15331;SDS011;7766;51.534;6.722;2023-05-24T00:04:29;10.40;;;3.03;;
15331;SDS011;7766;51.534;6.722;2023-05-24T00:05:31;7.20;;;2.23;;
15331;SDS011;7766;51.534;6.722;2023-05-24T00:06:32;11.47;;;2.50;;
15331;SDS011;7766;51.534;6.722;2023-05-24T00:07:36;10.73;;;3.10;;
15331;SDS011;7766;51.534;6.722;2023-05-24T00:08:37;8.50;;;1.87;;
15331;SDS011;7766;51.534;6.722;2023-05-24T00:09:38;7.30;;;2.20;;
15331;SDS011;7766;51.534;6.722;2023-05-24T00:10:39;6.13;;;2.10;;
15331;SDS011;7766;51.534;6.722;2023-05-24T00:11:40;8.87;;;2.47;;
15331;SDS011;7766;51.534;6.722;2023-05-24T00:12:41;5.50;;;2.50;;
15331;SDS011;7766;51.534;6.722;2023-05-24T00:13:42;8.83;;;2.87;;
15331;SDS011;7766;51.534;6.722;2023-05-24T00:14:43;9.10;;;2.20;;
15331;SDS011;7766;51.534;6.722;2023-05-24T00:15:43;10.13;;;2.20;;
15331;SDS011;7766;51.534;6.722;2023-05-24T00:16:45;9.70;;;2.80;;
15331;SDS011;7766;51.534;6.722;2023-05-24T00:17:46;11.07;;;2.70;;
15331;SDS011;7766;51.534;6.722;2023-05-24T00:18:47;7.53;;;2.50;;
15331;SDS011;7766;51.534;6.722;2023-05-24T00:19:48;10.80;;;2.67;;
15331;SDS011;7766;51.534;6.722;2023-05-24T00:20:49;8.33;;;2.27;;
15331;SDS011;7766;51.534;6.722;2023-05-24T00:21:50;5.77;;;2.00;;
15331;SDS011;7766;51.534;6.722;2023-05-24T00:22:52;6.57;;;3.07;;
15331;SDS011;7766;51.534;6.722;2023-05-24T00:23:53;7.20;;;2.40;;
15331;SDS011;7766;51.534;6.722;2023-05-24T00:24:53;11.60;;;3.03;;
15331;SDS011;7766;51.534;6.722;2023-05-24T00:25:54;5.47;;;2.43;;
15331;SDS011;7766;51.534;6.722;2023-05-24T00:26:55;5.00;;;2.00;;
15331;SDS011;7766;51.534;6.722;2023-05-24T00:27:56;8.93;;;2.27;;
15331;SDS011;7766;51.534;6.722;2023-05-24T00:28:57;6.80;;;2.37;;
15331;SDS011;7766;51.534;6.722;2023-05-24T00:29:58;7.10;;;2.37;;
15331;SDS011;7766;51.534;6.722;2023-05-24T00:30:59;9.80;;;2.90;;
15331;SDS011;7766;51.534;6.722;2023-05-24T00:32:01;10.57;;;2.47;;
15331;SDS011;7766;51.534;6.722;2023-05-24T00:33:02;6.60;;;2.10;;
15331;SDS011;7766;51.534;6.722;2023-05-24T00:34:03;8.10;;;2.40;;
15331;SDS011;7766;51.534;6.722;2023-05-24T00:35:04;10.73;;;2.63;;
15331;SDS011;7766;51.534;6.722;2023-05-24T00:36:05;10.23;;;2.37;;
15331;SDS011;7766;51.534;6.722;2023-05-24T00:37:06;7.90;;;2.70;;
15331;SDS011;7766;51.534;6.722;2023-05-24T00:38:08;6.53;;;2.70;;
15331;SDS011;7766;51.534;6.722;2023-05-24T00:39:09;9.13;;;2.67;;
15331;SDS011;7766;51.534;6.722;2023-05-24T00:40:11;10.03;;;2.80;;
15331;SDS011;7766;51.534;6.722;2023-05-24T00:41:12;10.43;;;2.63;;
15331;SDS011;7766;51.534;6.722;2023-05-24T00:42:14;8.27;;;2.50;;
15331;SDS011;7766;51.534;6.722;2023-05-24T00:43:15;10.93;;;2.70;;
15331;SDS011;7766;51.534;6.722;2023-05-24T00:44:16;9.37;;;2.63;;
15331;SDS011;7766;51.534;6.722;2023-05-24T00:45:18;7.10;;;2.30;;
15331;SDS011;7766;51.534;6.722;2023-05-24T00:46:29;9.03;;;2.33;;
15331;SDS011;7766;51.534;6.722;2023-05-24T00:47:32;5.87;;;2.10;;
15331;SDS011;7766;51.534;6.722;2023-05-24T00:48:33;10.00;;;2.57;;
15331;SDS011;7766;51.534;6.722;2023-05-24T00:49:34;9.67;;;2.57;;
15331;SDS011;7766;51.534;6.722;2023-05-24T00:50:36;7.40;;;2.87;;
15331;SDS011;7766;51.534;6.722;2023-05-24T00:51:38;9.73;;;3.33;;
15331;SDS011;7766;51.534;6.722;2023-05-24T00:52:39;6.67;;;2.30;;
15331;SDS011;7766;51.534;6.722;2023-05-24T00:53:41;8.40;;;2.63;;
15331;SDS011;7766;51.534;6.722;2023-05-24T00:54:45;5.63;;;2.00;;
15331;SDS011;7766;51.534;6.722;2023-05-24T00:55:47;6.63;;;2.67;;
15331;SDS011;7766;51.534;6.722;2023-05-24T00:56:48;5.93;;;2.07;;
15331;SDS011;7766;51.534;6.722;2023-05-24T00:57:50;9.40;;;2.27;;
15331;SDS011;7766;51.534;6.722;2023-05-24T00:58:51;9.53;;;2.60;;
15331;SDS011;7766;51.534;6.722;2023-05-24T00:59:54;12.17;;;2.53;;
15331;SDS011;7766;51.534;6.722;2023-05-24T01:00:57;11.13;;;2.13;;
15331;SDS011;7766;51.534;6.722;2023-05-24T01:02:00;7.20;;;2.50;;
15331;SDS011;7766;51.534;6.722;2023-05-24T01:03:01;8.57;;;2.97;;
15331;SDS011;7766;51.534;6.722;2023-05-24T01:04:02;11.27;;;2.77;;
15331;SDS011;7766;51.534;6.722;2023-05-24T01:05:04;9.53;;;2.50;;
15331;SDS011;7766;51.534;6.722;2023-05-24T01:06:06;9.87;;;2.73;;
15331;SDS011;7766;51.534;6.722;2023-05-24T01:09:39;4.20;;;1.87;;
15331;SDS011;7766;51.534;6.722;2023-05-24T01:10:54;9.10;;;3.03;;
15331;SDS011;7766;51.534;6.722;2023-05-24T01:12:08;9.57;;;2.30;;
15331;SDS011;7766;51.534;6.722;2023-05-24T01:13:15;10.43;;;2.40;;
15331;SDS011;7766;51.534;6.722;2023-05-24T01:16:04;7.50;;;2.73;;
15331;SDS011;7766;51.534;6.722;2023-05-24T01:17:34;9.10;;;2.90;;
15331;SDS011;7766;51.534;6.722;2023-05-24T01:18:49;7.70;;;2.77;;
15331;SDS011;7766;51.534;6.722;2023-05-24T01:20:15;13.47;;;2.90;;
15331;SDS011;7766;51.534;6.722;2023-05-24T01:21:40;11.83;;;2.97;;
15331;SDS011;7766;51.534;6.722;2023-05-24T01:24:23;10.53;;;2.90;;
15331;SDS011;7766;51.534;6.722;2023-05-24T01:27:21;10.93;;;2.37;;
15331;SDS011;7766;51.534;6.722;2023-05-24T01:28:16;8.07;;;2.37;;
15331;SDS011;7766;51.534;6.722;2023-05-24T01:29:18;11.03;;;2.80;;
15331;SDS011;7766;51.534;6.722;2023-05-24T01:30:19;8.67;;;2.97;;
15331;SDS011;7766;51.534;6.722;2023-05-24T01:31:21;12.07;;;3.37;;
15331;SDS011;7766;51.534;6.722;2023-05-24T01:32:23;11.17;;;2.80;;
15331;SDS011;7766;51.534;6.722;2023-05-24T01:33:24;7.73;;;2.70;;
15331;SDS011;7766;51.534;6.722;2023-05-24T01:34:25;6.70;;;2.77;;
15331;SDS011;7766;51.534;6.722;2023-05-24T01:35:27;9.27;;;3.43;;
15331;SDS011;7766;51.534;6.722;2023-05-24T01:36:28;8.93;;;2.47;;
15331;SDS011;7766;51.534;6.722;2023-05-24T01:37:29;9.43;;;2.57;;
15331;SDS011;7766;51.534;6.722;2023-05-24T01:38:30;7.47;;;2.37;;
15331;SDS011;7766;51.534;6.722;2023-05-24T01:39:31;10.10;;;3.33;;
15331;SDS011;7766;51.534;6.722;2023-05-24T01:40:32;8.43;;;2.80;;
15331;SDS011;7766;51.534;6.722;2023-05-24T01:41:42;12.23;;;3.57;;
15331;SDS011;7766;51.534;6.722;2023-05-24T01:43:24;9.23;;;2.67;;
15331;SDS011;7766;51.534;6.722;2023-05-24T01:44:39;10.13;;;2.97;;
15331;SDS011;7766;51.534;6.722;2023-05-24T01:45:55;9.93;;;2.87;;
15331;SDS011;7766;51.534;6.722;2023-05-24T01:47:15;11.73;;;2.33;;
15331;SDS011;7766;51.534;6.722;2023-05-24T01:50:16;9.67;;;2.70;;
15331;SDS011;7766;51.534;6.722;2023-05-24T01:51:18;6.97;;;2.50;;
15331;SDS011;7766;51.534;6.722;2023-05-24T01:52:23;6.97;;;2.43;;
15331;SDS011;7766;51.534;6.722;2023-05-24T01:53:33;10.57;;;2.93;;
15331;SDS011;7766;51.534;6.722;2023-05-24T01:54:44;7.70;;;2.37;;
15331;SDS011;7766;51.534;6.722;2023-05-24T01:55:50;10.17;;;2.30;;
15331;SDS011;7766;51.534;6.722;2023-05-24T01:56:54;5.00;;;2.53;;
15331;SDS011;7766;51.534;6.722;2023-05-24T01:57:57;8.80;;;2.63;;
15331;SDS011;7766;51.534;6.722;2023-05-24T01:59:01;7.50;;;2.57;;
15331;SDS011;7766;51.534;6.722;2023-05-24T02:00:03;6.43;;;2.30;;
15331;SDS011;7766;51.534;6.722;2023-05-24T02:01:05;8.57;;;2.43;;
15331;SDS011;7766;51.534;6.722;2023-05-24T02:02:07;9.60;;;2.70;;
15331;SDS011;7766;51.534;6.722;2023-05-24T02:03:14;10.90;;;2.77;;
15331;SDS011;7766;51.534;6.722;2023-05-24T02:04:16;6.17;;;2.57;;
15331;SDS011;7766;51.534;6.722;2023-05-24T02:05:17;9.73;;;2.70;;
15331;SDS011;7766;51.534;6.722;2023-05-24T02:06:18;6.50;;;2.40;;
15331;SDS011;7766;51.534;6.722;2023-05-24T02:07:19;7.30;;;2.47;;
15331;SDS011;7766;51.534;6.722;2023-05-24T02:08:20;9.57;;;2.83;;
15331;SDS011;7766;51.534;6.722;2023-05-24T02:09:21;10.53;;;2.80;;
15331;SDS011;7766;51.534;6.722;2023-05-24T02:10:22;11.03;;;2.80;;
15331;SDS011;7766;51.534;6.722;2023-05-24T02:11:23;8.87;;;2.70;;
15331;SDS011;7766;51.534;6.722;2023-05-24T02:12:25;7.77;;;3.00;;
15331;SDS011;7766;51.534;6.722;2023-05-24T02:13:26;7.20;;;2.50;;
15331;SDS011;7766;51.534;6.722;2023-05-24T02:14:27;7.43;;;3.00;;
15331;SDS011;7766;51.534;6.722;2023-05-24T02:15:28;5.53;;;2.17;;
15331;SDS011;7766;51.534;6.722;2023-05-24T02:16:29;5.30;;;2.13;;
15331;SDS011;7766;51.534;6.722;2023-05-24T02:17:30;9.37;;;3.17;;
15331;SDS011;7766;51.534;6.722;2023-05-24T02:18:31;10.20;;;2.67;;
15331;SDS011;7766;51.534;6.722;2023-05-24T02:19:33;8.70;;;2.60;;
15331;SDS011;7766;51.534;6.722;2023-05-24T02:20:35;6.13;;;2.63;;
15331;SDS011;7766;51.534;6.722;2023-05-24T02:21:36;14.47;;;2.80;;
15331;SDS011;7766;51.534;6.722;2023-05-24T02:22:38;9.67;;;2.73;;
15331;SDS011;7766;51.534;6.722;2023-05-24T02:23:38;6.63;;;2.57;;
15331;SDS011;7766;51.534;6.722;2023-05-24T02:24:40;7.13;;;2.73;;
15331;SDS011;7766;51.534;6.722;2023-05-24T02:25:40;9.07;;;2.83;;
15331;SDS011;7766;51.534;6.722;2023-05-24T02:26:42;9.70;;;2.43;;
15331;SDS011;7766;51.534;6.722;2023-05-24T02:27:43;9.30;;;2.73;;
15331;SDS011;7766;51.534;6.722;2023-05-24T02:28:46;6.97;;;2.50;;
15331;SDS011;7766;51.534;6.722;2023-05-24T02:29:47;11.23;;;3.10;;
15331;SDS011;7766;51.534;6.722;2023-05-24T02:30:47;8.90;;;2.57;;
15331;SDS011;7766;51.534;6.722;2023-05-24T02:31:48;7.37;;;2.43;;
15331;SDS011;7766;51.534;6.722;2023-05-24T02:32:55;6.03;;;2.83;;
15331;SDS011;7766;51.534;6.722;2023-05-24T02:33:56;11.60;;;2.87;;
15331;SDS011;7766;51.534;6.722;2023-05-24T02:34:57;5.80;;;2.07;;
15331;SDS011;7766;51.534;6.722;2023-05-24T02:36:00;7.80;;;2.57;;
15331;SDS011;7766;51.534;6.722;2023-05-24T02:37:02;7.63;;;2.73;;
15331;SDS011;7766;51.534;6.722;2023-05-24T02:38:03;7.00;;;2.50;;
15331;SDS011;7766;51.534;6.722;2023-05-24T02:39:05;4.10;;;2.30;;
15331;SDS011;7766;51.534;6.722;2023-05-24T02:40:07;9.40;;;2.57;;
15331;SDS011;7766;51.534;6.722;2023-05-24T02:41:08;10.40;;;2.77;;
15331;SDS011;7766;51.534;6.722;2023-05-24T02:42:10;4.93;;;2.37;;
15331;SDS011;7766;51.534;6.722;2023-05-24T02:43:11;6.87;;;2.63;;
15331;SDS011;7766;51.534;6.722;2023-05-24T02:44:12;10.97;;;2.90;;
15331;SDS011;7766;51.534;6.722;2023-05-24T02:45:13;9.50;;;2.80;;
15331;SDS011;7766;51.534;6.722;2023-05-24T02:46:14;7.53;;;2.67;;
15331;SDS011;7766;51.534;6.722;2023-05-24T02:47:15;6.00;;;2.73;;
15331;SDS011;7766;51.534;6.722;2023-05-24T02:48:19;6.97;;;2.70;;
15331;SDS011;7766;51.534;6.722;2023-05-24T02:49:20;10.20;;;2.90;;
15331;SDS011;7766;51.534;6.722;2023-05-24T02:50:21;7.40;;;2.70;;
15331;SDS011;7766;51.534;6.722;2023-05-24T02:51:22;8.90;;;3.23;;
15331;SDS011;7766;51.534;6.722;2023-05-24T02:52:23;8.83;;;2.60;;
15331;SDS011;7766;51.534;6.722;2023-05-24T02:53:24;6.90;;;2.90;;
15331;SDS011;7766;51.534;6.722;2023-05-24T02:54:25;8.57;;;3.00;;
15331;SDS011;7766;51.534;6.722;2023-05-24T02:55:26;9.53;;;2.63;;
15331;SDS011;7766;51.534;6.722;2023-05-24T02:56:28;8.90;;;2.70;;
15331;SDS011;7766;51.534;6.722;2023-05-24T02:57:29;9.70;;;2.53;;
15331;SDS011;7766;51.534;6.722;2023-05-24T02:58:33;8.90;;;2.87;;
15331;SDS011;7766;51.534;6.722;2023-05-24T02:59:39;7.37;;;2.30;;
15331;SDS011;7766;51.534;6.722;2023-05-24T03:00:40;7.83;;;2.73;;
15331;SDS011;7766;51.534;6.722;2023-05-24T03:01:41;7.07;;;2.97;;
15331;SDS011;7766;51.534;6.722;2023-05-24T03:02:42;10.10;;;3.37;;
15331;SDS011;7766;51.534;6.722;2023-05-24T03:03:43;9.33;;;2.93;;
15331;SDS011;7766;51.534;6.722;2023-05-24T03:04:44;13.53;;;3.43;;
15331;SDS011;7766;51.534;6.722;2023-05-24T03:05:45;9.37;;;2.90;;
15331;SDS011;7766;51.534;6.722;2023-05-24T03:06:46;7.27;;;2.90;;
15331;SDS011;7766;51.534;6.722;2023-05-24T03:07:47;9.13;;;2.93;;
15331;SDS011;7766;51.534;6.722;2023-05-24T03:08:48;7.33;;;2.50;;
15331;SDS011;7766;51.534;6.722;2023-05-24T03:09:50;10.13;;;3.00;;
15331;SDS011;7766;51.534;6.722;2023-05-24T03:10:51;7.00;;;2.70;;
15331;SDS011;7766;51.534;6.722;2023-05-24T03:11:52;12.30;;;3.47;;
15331;SDS011;7766;51.534;6.722;2023-05-24T03:12:53;4.90;;;2.40;;
15331;SDS011;7766;51.534;6.722;2023-05-24T03:13:54;9.67;;;2.83;;
15331;SDS011;7766;51.534;6.722;2023-05-24T03:14:55;7.73;;;3.10;;
15331;SDS011;7766;51.534;6.722;2023-05-24T03:15:56;9.90;;;3.30;;
15331;SDS011;7766;51.534;6.722;2023-05-24T03:16:57;9.27;;;3.40;;
15331;SDS011;7766;51.534;6.722;2023-05-24T03:17:58;8.53;;;2.93;;
15331;SDS011;7766;51.534;6.722;2023-05-24T03:18:59;7.83;;;3.47;;
15331;SDS011;7766;51.534;6.722;2023-05-24T03:20:00;9.63;;;3.63;;
15331;SDS011;7766;51.534;6.722;2023-05-24T03:21:01;6.63;;;2.63;;
15331;SDS011;7766;51.534;6.722;2023-05-24T03:22:03;7.77;;;2.77;;
15331;SDS011;7766;51.534;6.722;2023-05-24T03:23:04;11.60;;;3.60;;
15331;SDS011;7766;51.534;6.722;2023-05-24T03:24:05;6.50;;;3.10;;
15331;SDS011;7766;51.534;6.722;2023-05-24T03:25:06;7.67;;;2.90;;
15331;SDS011;7766;51.534;6.722;2023-05-24T03:26:08;10.27;;;3.20;;
15331;SDS011;7766;51.534;6.722;2023-05-24T03:27:09;12.33;;;3.53;;
15331;SDS011;7766;51.534;6.722;2023-05-24T03:28:10;10.20;;;3.07;;
15331;SDS011;7766;51.534;6.722;2023-05-24T03:29:13;10.37;;;2.83;;
15331;SDS011;7766;51.534;6.722;2023-05-24T03:30:14;10.60;;;4.17;;
15331;SDS011;7766;51.534;6.722;2023-05-24T03:31:15;9.00;;;3.00;;
15331;SDS011;7766;51.534;6.722;2023-05-24T03:32:19;9.97;;;2.70;;
15331;SDS011;7766;51.534;6.722;2023-05-24T03:33:20;14.37;;;3.17;;
15331;SDS011;7766;51.534;6.722;2023-05-24T03:34:21;7.87;;;3.00;;
15331;SDS011;7766;51.534;6.722;2023-05-24T03:35:23;7.03;;;2.90;;
15331;SDS011;7766;51.534;6.722;2023-05-24T03:36:24;9.33;;;3.07;;
15331;SDS011;7766;51.534;6.722;2023-05-24T03:37:26;12.67;;;3.73;;
15331;SDS011;7766;51.534;6.722;2023-05-24T03:38:27;9.47;;;2.53;;
15331;SDS011;7766;51.534;6.722;2023-05-24T03:39:29;13.27;;;3.43;;
15331;SDS011;7766;51.534;6.722;2023-05-24T03:40:30;10.60;;;3.40;;
15331;SDS011;7766;51.534;6.722;2023-05-24T03:41:32;9.17;;;2.87;;
15331;SDS011;7766;51.534;6.722;2023-05-24T03:42:33;11.10;;;3.27;;
15331;SDS011;7766;51.534;6.722;2023-05-24T03:43:34;14.17;;;4.20;;
15331;SDS011;7766;51.534;6.722;2023-05-24T03:44:36;9.63;;;2.90;;
15331;SDS011;7766;51.534;6.722;2023-05-24T03:45:39;10.87;;;3.30;;
15331;SDS011;7766;51.534;6.722;2023-05-24T03:46:40;8.40;;;3.50;;
15331;SDS011;7766;51.534;6.722;2023-05-24T03:47:41;15.43;;;3.57;;
15331;SDS011;7766;51.534;6.722;2023-05-24T03:48:42;11.77;;;3.73;;
15331;SDS011;7766;51.534;6.722;2023-05-24T03:49:43;10.17;;;3.20;;
15331;SDS011;7766;51.534;6.722;2023-05-24T03:50:44;12.30;;;3.73;;
15331;SDS011;7766;51.534;6.722;2023-05-24T03:51:45;13.43;;;3.67;;
15331;SDS011;7766;51.534;6.722;2023-05-24T03:52:46;8.93;;;3.37;;
15331;SDS011;7766;51.534;6.722;2023-05-24T03:53:47;10.70;;;3.50;;
15331;SDS011;7766;51.534;6.722;2023-05-24T03:54:48;7.70;;;2.77;;
15331;SDS011;7766;51.534;6.722;2023-05-24T03:55:49;10.03;;;3.60;;
15331;SDS011;7766;51.534;6.722;2023-05-24T03:56:51;7.63;;;2.90;;
15331;SDS011;7766;51.534;6.722;2023-05-24T03:57:52;9.73;;;3.00;;
15331;SDS011;7766;51.534;6.722;2023-05-24T03:58:53;13.30;;;2.90;;
15331;SDS011;7766;51.534;6.722;2023-05-24T03:59:56;5.27;;;2.50;;
15331;SDS011;7766;51.534;6.722;2023-05-24T04:00:59;9.13;;;3.37;;
15331;SDS011;7766;51.534;6.722;2023-05-24T04:02:00;13.90;;;3.50;;
15331;SDS011;7766;51.534;6.722;2023-05-24T04:03:01;7.73;;;3.00;;
15331;SDS011;7766;51.534;6.722;2023-05-24T04:04:05;11.90;;;2.87;;
15331;SDS011;7766;51.534;6.722;2023-05-24T04:05:06;7.83;;;2.80;;
15331;SDS011;7766;51.534;6.722;2023-05-24T04:06:12;11.83;;;3.30;;
15331;SDS011;7766;51.534;6.722;2023-05-24T04:07:13;10.43;;;3.13;;
15331;SDS011;7766;51.534;6.722;2023-05-24T04:08:15;6.63;;;2.70;;
15331;SDS011;7766;51.534;6.722;2023-05-24T04:09:16;9.13;;;2.57;;
15331;SDS011;7766;51.534;6.722;2023-05-24T04:10:17;8.73;;;3.53;;
15331;SDS011;7766;51.534;6.722;2023-05-24T04:11:18;10.17;;;3.00;;
15331;SDS011;7766;51.534;6.722;2023-05-24T04:12:21;10.90;;;3.23;;
15331;SDS011;7766;51.534;6.722;2023-05-24T04:13:23;8.27;;;2.87;;
15331;SDS011;7766;51.534;6.722;2023-05-24T04:14:23;9.50;;;2.80;;
15331;SDS011;7766;51.534;6.722;2023-05-24T04:15:24;6.97;;;3.10;;
15331;SDS011;7766;51.534;6.722;2023-05-24T04:16:25;8.83;;;3.23;;
15331;SDS011;7766;51.534;6.722;2023-05-24T04:17:27;7.60;;;3.00;;
15331;SDS011;7766;51.534;6.722;2023-05-24T04:18:29;9.20;;;3.23;;
15331;SDS011;7766;51.534;6.722;2023-05-24T04:19:30;8.97;;;3.00;;
15331;SDS011;7766;51.534;6.722;2023-05-24T04:20:31;9.77;;;2.87;;
15331;SDS011;7766;51.534;6.722;2023-05-24T04:21:32;8.00;;;3.07;;
15331;SDS011;7766;51.534;6.722;2023-05-24T04:22:36;10.73;;;3.40;;
15331;SDS011;7766;51.534;6.722;2023-05-24T04:23:37;7.03;;;3.20;;
15331;SDS011;7766;51.534;6.722;2023-05-24T04:24:38;12.03;;;3.20;;
15331;SDS011;7766;51.534;6.722;2023-05-24T04:25:40;7.40;;;2.53;;
15331;SDS011;7766;51.534;6.722;2023-05-24T04:26:41;11.57;;;3.37;;
15331;SDS011;7766;51.534;6.722;2023-05-24T04:27:43;9.17;;;3.50;;
15331;SDS011;7766;51.534;6.722;2023-05-24T04:28:47;10.47;;;3.50;;
15331;SDS011;7766;51.534;6.722;2023-05-24T04:29:48;13.00;;;3.83;;
15331;SDS011;7766;51.534;6.722;2023-05-24T04:30:49;8.77;;;2.80;;
15331;SDS011;7766;51.534;6.722;2023-05-24T04:31:50;10.13;;;3.57;;
15331;SDS011;7766;51.534;6.722;2023-05-24T04:32:51;10.90;;;3.40;;
15331;SDS011;7766;51.534;6.722;2023-05-24T04:33:52;9.50;;;3.40;;
15331;SDS011;7766;51.534;6.722;2023-05-24T04:34:54;9.07;;;3.33;;
15331;SDS011;7766;51.534;6.722;2023-05-24T04:35:55;8.30;;;3.53;;
15331;SDS011;7766;51.534;6.722;2023-05-24T04:37:00;11.63;;;3.43;;
15331;SDS011;7766;51.534;6.722;2023-05-24T04:38:01;9.57;;;4.10;;
15331;SDS011;7766;51.534;6.722;2023-05-24T04:39:02;11.37;;;3.87;;
15331;SDS011;7766;51.534;6.722;2023-05-24T04:40:04;9.17;;;3.50;;
15331;SDS011;7766;51.534;6.722;2023-05-24T04:41:06;11.50;;;3.60;;
15331;SDS011;7766;51.534;6.722;2023-05-24T04:42:09;12.20;;;4.10;;
15331;SDS011;7766;51.534;6.722;2023-05-24T04:43:11;17.07;;;3.70;;
15331;SDS011;7766;51.534;6.722;2023-05-24T04:44:12;10.00;;;3.93;;
15331;SDS011;7766;51.534;6.722;2023-05-24T04:45:13;8.70;;;3.60;;
15331;SDS011;7766;51.534;6.722;2023-05-24T04:46:14;17.17;;;4.03;;
15331;SDS011;7766;51.534;6.722;2023-05-24T04:47:14;9.57;;;3.57;;
15331;SDS011;7766;51.534;6.722;2023-05-24T04:48:16;12.20;;;3.67;;
15331;SDS011;7766;51.534;6.722;2023-05-24T04:49:18;12.37;;;3.77;;
15331;SDS011;7766;51.534;6.722;2023-05-24T04:50:19;9.73;;;3.80;;
15331;SDS011;7766;51.534;6.722;2023-05-24T04:51:20;12.03;;;3.87;;
15331;SDS011;7766;51.534;6.722;2023-05-24T04:52:22;11.03;;;3.47;;
15331;SDS011;7766;51.534;6.722;2023-05-24T04:53:23;10.83;;;4.27;;
15331;SDS011;7766;51.534;6.722;2023-05-24T04:54:24;14.60;;;3.97;;
15331;SDS011;7766;51.534;6.722;2023-05-24T04:55:25;11.80;;;3.60;;
15331;SDS011;7766;51.534;6.722;2023-05-24T04:56:26;12.57;;;3.67;;
15331;SDS011;7766;51.534;6.722;2023-05-24T04:57:27;13.00;;;3.70;;
15331;SDS011;7766;51.534;6.722;2023-05-24T04:58:29;12.00;;;4.00;;
15331;SDS011;7766;51.534;6.722;2023-05-24T04:59:30;12.97;;;4.23;;
15331;SDS011;7766;51.534;6.722;2023-05-24T05:00:31;12.20;;;3.83;;
15331;SDS011;7766;51.534;6.722;2023-05-24T05:01:32;16.83;;;4.67;;
15331;SDS011;7766;51.534;6.722;2023-05-24T05:02:33;15.43;;;4.10;;
15331;SDS011;7766;51.534;6.722;2023-05-24T05:03:34;12.47;;;4.47;;
15331;SDS011;7766;51.534;6.722;2023-05-24T05:04:35;10.17;;;3.80;;
15331;SDS011;7766;51.534;6.722;2023-05-24T05:05:36;10.77;;;4.00;;
15331;SDS011;7766;51.534;6.722;2023-05-24T05:06:37;17.03;;;4.10;;
15331;SDS011;7766;51.534;6.722;2023-05-24T05:07:39;17.80;;;4.43;;
15331;SDS011;7766;51.534;6.722;2023-05-24T05:08:40;16.10;;;4.33;;
15331;SDS011;7766;51.534;6.722;2023-05-24T05:09:41;10.40;;;4.23;;
15331;SDS011;7766;51.534;6.722;2023-05-24T05:10:42;13.67;;;3.90;;
15331;SDS011;7766;51.534;6.722;2023-05-24T05:11:44;12.27;;;4.10;;
15331;SDS011;7766;51.534;6.722;2023-05-24T05:12:45;13.87;;;4.70;;
15331;SDS011;7766;51.534;6.722;2023-05-24T05:13:46;12.37;;;4.20;;
15331;SDS011;7766;51.534;6.722;2023-05-24T05:14:47;10.80;;;4.40;;
15331;SDS011;7766;51.534;6.722;2023-05-24T05:15:49;10.00;;;4.47;;
15331;SDS011;7766;51.534;6.722;2023-05-24T05:16:51;13.50;;;4.00;;
15331;SDS011;7766;51.534;6.722;2023-05-24T05:17:52;10.83;;;4.53;;
15331;SDS011;7766;51.534;6.722;2023-05-24T05:18:53;12.67;;;4.57;;
15331;SDS011;7766;51.534;6.722;2023-05-24T05:19:54;11.80;;;3.70;;
15331;SDS011;7766;51.534;6.722;2023-05-24T05:20:55;10.03;;;4.07;;
15331;SDS011;7766;51.534;6.722;2023-05-24T05:21:57;14.67;;;4.67;;
15331;SDS011;7766;51.534;6.722;2023-05-24T05:22:58;12.17;;;4.60;;
15331;SDS011;7766;51.534;6.722;2023-05-24T05:23:59;17.40;;;4.80;;
15331;SDS011;7766;51.534;6.722;2023-05-24T05:25:01;15.20;;;4.60;;
15331;SDS011;7766;51.534;6.722;2023-05-24T05:26:02;16.33;;;4.43;;
15331;SDS011;7766;51.534;6.722;2023-05-24T05:27:03;14.50;;;4.07;;
15331;SDS011;7766;51.534;6.722;2023-05-24T05:28:05;9.47;;;4.03;;
15331;SDS011;7766;51.534;6.722;2023-05-24T05:29:06;12.63;;;4.60;;
15331;SDS011;7766;51.534;6.722;2023-05-24T05:30:07;16.67;;;4.27;;
15331;SDS011;7766;51.534;6.722;2023-05-24T05:31:08;16.23;;;4.67;;
15331;SDS011;7766;51.534;6.722;2023-05-24T05:32:09;15.70;;;5.03;;
15331;SDS011;7766;51.534;6.722;2023-05-24T05:33:10;15.57;;;4.90;;
15331;SDS011;7766;51.534;6.722;2023-05-24T05:34:11;14.60;;;4.67;;
15331;SDS011;7766;51.534;6.722;2023-05-24T05:35:12;17.27;;;4.83;;
15331;SDS011;7766;51.534;6.722;2023-05-24T05:36:13;14.83;;;4.30;;
15331;SDS011;7766;51.534;6.722;2023-05-24T05:37:15;14.27;;;4.83;;
15331;SDS011;7766;51.534;6.722;2023-05-24T05:38:16;13.23;;;4.10;;
15331;SDS011;7766;51.534;6.722;2023-05-24T05:39:17;14.57;;;4.63;;
15331;SDS011;7766;51.534;6.722;2023-05-24T05:40:18;15.80;;;4.47;;
15331;SDS011;7766;51.534;6.722;2023-05-24T05:41:19;9.57;;;3.87;;
15331;SDS011;7766;51.534;6.722;2023-05-24T05:42:21;12.80;;;3.90;;
15331;SDS011;7766;51.534;6.722;2023-05-24T05:43:22;13.00;;;4.20;;
15331;SDS011;7766;51.534;6.722;2023-05-24T05:44:24;19.17;;;4.50;;
15331;SDS011;7766;51.534;6.722;2023-05-24T05:45:25;14.53;;;4.60;;
15331;SDS011;7766;51.534;6.722;2023-05-24T05:46:26;11.03;;;4.10;;
15331;SDS011;7766;51.534;6.722;2023-05-24T05:47:27;12.27;;;3.73;;
15331;SDS011;7766;51.534;6.722;2023-05-24T05:48:28;13.80;;;4.80;;
15331;SDS011;7766;51.534;6.722;2023-05-24T05:49:29;15.13;;;4.87;;
15331;SDS011;7766;51.534;6.722;2023-05-24T05:50:30;18.23;;;4.60;;
15331;SDS011;7766;51.534;6.722;2023-05-24T05:51:31;10.60;;;4.20;;
15331;SDS011;7766;51.534;6.722;2023-05-24T05:52:32;14.47;;;4.47;;
15331;SDS011;7766;51.534;6.722;2023-05-24T05:53:33;14.70;;;4.83;;
15331;SDS011;7766;51.534;6.722;2023-05-24T05:54:34;14.43;;;4.73;;
15331;SDS011;7766;51.534;6.722;2023-05-24T05:55:35;19.37;;;4.33;;
15331;SDS011;7766;51.534;6.722;2023-05-24T05:56:36;15.30;;;4.80;;
15331;SDS011;7766;51.534;6.722;2023-05-24T05:57:43;15.13;;;4.70;;
15331;SDS011;7766;51.534;6.722;2023-05-24T05:58:44;16.07;;;4.60;;
15331;SDS011;7766;51.534;6.722;2023-05-24T05:59:45;17.90;;;4.97;;
15331;SDS011;7766;51.534;6.722;2023-05-24T06:00:46;13.17;;;4.40;;
15331;SDS011;7766;51.534;6.722;2023-05-24T06:01:47;12.93;;;4.47;;
15331;SDS011;7766;51.534;6.722;2023-05-24T06:02:48;19.10;;;5.20;;
15331;SDS011;7766;51.534;6.722;2023-05-24T06:03:50;21.93;;;4.37;;
15331;SDS011;7766;51.534;6.722;2023-05-24T06:04:51;17.33;;;4.80;;
15331;SDS011;7766;51.534;6.722;2023-05-24T06:05:52;13.50;;;4.47;;
15331;SDS011;7766;51.534;6.722;2023-05-24T06:06:53;10.97;;;4.40;;
15331;SDS011;7766;51.534;6.722;2023-05-24T06:07:53;20.20;;;5.20;;
15331;SDS011;7766;51.534;6.722;2023-05-24T06:08:55;16.77;;;5.23;;
15331;SDS011;7766;51.534;6.722;2023-05-24T06:09:56;15.67;;;4.67;;
15331;SDS011;7766;51.534;6.722;2023-05-24T06:10:57;13.30;;;4.70;;
15331;SDS011;7766;51.534;6.722;2023-05-24T06:11:58;20.27;;;5.43;;
15331;SDS011;7766;51.534;6.722;2023-05-24T06:13:00;13.93;;;4.60;;
15331;SDS011;7766;51.534;6.722;2023-05-24T06:14:02;12.50;;;4.10;;
15331;SDS011;7766;51.534;6.722;2023-05-24T06:15:03;19.37;;;5.33;;
15331;SDS011;7766;51.534;6.722;2023-05-24T06:16:05;22.93;;;4.67;;
15331;SDS011;7766;51.534;6.722;2023-05-24T06:17:07;13.60;;;4.63;;
15331;SDS011;7766;51.534;6.722;2023-05-24T06:18:08;17.33;;;4.30;;
15331;SDS011;7766;51.534;6.722;2023-05-24T06:19:09;18.00;;;4.70;;
15331;SDS011;7766;51.534;6.722;2023-05-24T06:20:11;16.67;;;5.00;;
15331;SDS011;7766;51.534;6.722;2023-05-24T06:21:14;11.43;;;4.43;;
15331;SDS011;7766;51.534;6.722;2023-05-24T06:22:16;16.07;;;4.43;;
15331;SDS011;7766;51.534;6.722;2023-05-24T06:23:17;16.43;;;5.00;;
15331;SDS011;7766;51.534;6.722;2023-05-24T06:24:18;23.57;;;5.27;;
15331;SDS011;7766;51.534;6.722;2023-05-24T06:25:22;21.67;;;4.87;;
15331;SDS011;7766;51.534;6.722;2023-05-24T06:26:23;17.07;;;5.43;;
15331;SDS011;7766;51.534;6.722;2023-05-24T06:27:25;16.87;;;4.90;;